Time;durP1;ratioP1;P1;durP2;ratioP2;P2;SDS_P1;SDS_P2;PMS_P1;PMS_P2;Temp;Humidity;BMP_temperature;BMP_pressure;BME280_temperature;BME280_humidity;BME280_pressure;Samples;Min_cycle;Max_cycle;Signal;HPM_P1;HPM_P2
2024/03/21 00:01:13;;;;;;;;;;;;;;;;;;5046790;28;20309;-66
2024/03/21 00:03:38;;;;;;;;;;;;;;;;;;5042895;28;20247;-66
2024/03/21 00:06:04;;;;;;;;;;;;;;;;;;5041339;28;20013;-66
2024/03/21 00:08:29;;;;;;;;;;;;;;;;;;5046601;28;19916;-66
2024/03/21 00:10:54;;;;;;;;;;;;;;;;;;5046434;28;19975;-66
2024/03/21 00:13:19;;;;;;;;;;;;;;;;;;5053975;28;20163;-66
2024/03/21 00:15:45;;;;;;;;;;;;;;;;;;5046864;28;19970;-66
2024/03/21 00:18:10;;;;;;;;;;;;;;;;;;5045444;28;20263;-66
2024/03/21 00:20:35;;;;;;;;;;;;;;;;;;5043171;28;19994;-66
2024/03/21 00:23:01;;;;;;;;;;;;;;;;;;5046581;28;20007;-66
2024/03/21 00:25:26;;;;;;;;;;;;;;;;;;5041281;28;19924;-65
2024/03/21 00:27:51;;;;;;;;;;;;;;;;;;5046318;28;20377;-66
2024/03/21 00:30:16;;;;;;;;;;;;;;;;;;5045919;28;19971;-66
2024/03/21 00:32:41;;;;;;;;;;;;;;;;;;5046464;28;19917;-65
2024/03/21 00:35:06;;;;;;;;;;;;;;;;;;5044568;28;19924;-66
2024/03/21 00:37:31;;;;;;;;;;;;;;;;;;5041998;28;20175;-66
2024/03/21 00:39:56;;;;;;;;;;;;;;;;;;5039021;28;20220;-66
2024/03/21 00:42:21;;;;;;;;;;;;;;;;;;5045798;28;19921;-66
2024/03/21 00:44:47;;;;;;;;;;;;;;;;;;5031843;28;20438;-66
2024/03/21 00:47:12;;;;;;;;;;;;;;;;;;5042460;28;19943;-66
2024/03/21 00:49:37;;;;;;;;;;;;;;;;;;5046118;28;19925;-65
2024/03/21 00:52:02;;;;;;;;;;;;;;;;;;5042234;28;19917;-66
2024/03/21 00:54:28;;;;;;;;;;;;;;;;;;5038437;28;19951;-65
2024/03/21 00:56:53;;;;;;;;;;;;;;;;;;5046226;28;19920;-65
2024/03/21 00:59:21;;;;;;;;;;;;;;;;;;5042681;28;19917;-65
2024/03/21 01:01:46;;;;;;;;;;;;;;;;;;5034208;28;19921;-66
2024/03/21 01:04:11;;;;;;;;;;;;;;;;;;5040879;28;20339;-66
2024/03/21 01:06:36;;;;;;;;;;;;;;;;;;5045986;28;20463;-66
2024/03/21 01:09:02;;;;;;;;;;;;;;;;;;5044064;28;19921;-66
2024/03/21 01:11:27;;;;;;;;;;;;;;;;;;5040266;28;19916;-66
2024/03/21 01:13:52;;;;;;;;;;;;;;;;;;5041674;28;19917;-66
2024/03/21 01:16:18;;;;;;;;;;;;;;;;;;5046603;28;20301;-66
2024/03/21 01:18:43;;;;;;;;;;;;;;;;;;5049624;28;19921;-66
2024/03/21 01:21:08;;;;;;;;;;;;;;;;;;5049675;28;20371;-65
2024/03/21 01:23:33;;;;;;;;;;;;;;;;;;5049955;28;19917;-66
2024/03/21 01:25:58;;;;;;;;;;;;;;;;;;5039086;28;20325;-65
2024/03/21 01:28:23;;;;;;;;;;;;;;;;;;5049132;28;19952;-66
2024/03/21 01:30:49;;;;;;;;;;;;;;;;;;5053257;28;20016;-66
2024/03/21 01:33:14;;;;;;;;;;;;;;;;;;5033021;28;20305;-66
2024/03/21 01:35:39;;;;;;;;;;;;;;;;;;5046222;28;19970;-65
2024/03/21 01:38:05;;;;;;;;;;;;;;;;;;5046370;28;19921;-66
2024/03/21 01:40:30;;;;;;;;;;;;;;;;;;5041132;28;19971;-66
2024/03/21 01:42:55;;;;;;;;;;;;;;;;;;5049108;28;19917;-66
2024/03/21 01:45:20;;;;;;;;;;;;;;;;;;5044202;28;19933;-66
2024/03/21 01:47:45;;;;;;;;;;;;;;;;;;5040962;28;19983;-65
2024/03/21 01:50:10;;;;;;;;;;;;;;;;;;5048749;28;20006;-66
2024/03/21 01:52:35;;;;;;;;;;;;;;;;;;5049122;28;19917;-65
2024/03/21 01:55:00;;;;;;;;;;;;;;;;;;5043669;28;19925;-65
2024/03/21 01:57:25;;;;;;;;;;;;;;;;;;5041377;28;20188;-65
2024/03/21 01:59:50;;;;;;;;;;;;;;;;;;5049500;28;19927;-65
2024/03/21 02:02:15;;;;;;;;;;;;;;;;;;5031994;28;19943;-65
2024/03/21 02:04:41;;;;;;;;;;;;;;;;;;5040661;28;19925;-65
2024/03/21 02:07:08;;;;;;;;;;;;;;;;;;5047355;28;19921;-65
2024/03/21 02:09:33;;;;;;;;;;;;;;;;;;5031937;28;19928;-65
2024/03/21 02:11:58;;;;;;;;;;;;;;;;;;5042411;28;19920;-65
2024/03/21 02:14:26;;;;;;;;;;;;;;;;;;5045151;28;19924;-65
2024/03/21 02:16:52;;;;;;;;;;;;;;;;;;5045423;28;19999;-65
2024/03/21 02:19:17;;;;;;;;;;;;;;;;;;5038716;28;20058;-65
2024/03/21 02:24:26;;;;;;;;;;;;;;;;;;5044880;28;19947;-65
2024/03/21 02:26:51;;;;;;;;;;;;;;;;;;5033705;28;19921;-65
2024/03/21 02:29:16;;;;;;;;;;;;;;;;;;5035244;28;19925;-65
2024/03/21 02:31:42;;;;;;;;;;;;;;;;;;5048288;28;19971;-65
2024/03/21 02:34:07;;;;;;;;;;;;;;;;;;5036827;28;19921;-66
2024/03/21 02:36:32;;;;;;;;;;;;;;;;;;5041172;28;19920;-65
2024/03/21 02:38:58;;;;;;;;;;;;;;;;;;5042883;28;19921;-65
2024/03/21 02:41:23;;;;;;;;;;;;;;;;;;5037962;28;19928;-65
2024/03/21 02:43:48;;;;;;;;;;;;;;;;;;5046079;28;20290;-65
2024/03/21 02:46:13;;;;;;;;;;;;;;;;;;5034128;28;20023;-65
2024/03/21 02:48:39;;;;;;;;;;;;;;;;;;5039382;28;19928;-65
2024/03/21 02:51:04;;;;;;;;;;;;;;;;;;5037632;28;19916;-65
2024/03/21 02:53:29;;;;;;;;;;;;;;;;;;5044805;28;20200;-65
2024/03/21 02:55:54;;;;;;;;;;;;;;;;;;5033890;28;19927;-65
2024/03/21 02:58:19;;;;;;;;;;;;;;;;;;5042042;28;19925;-65
2024/03/21 03:00:44;;;;;;;;;;;;;;;;;;5037186;28;19987;-65
2024/03/21 03:03:10;;;;;;;;;;;;;;;;;;5037071;28;20336;-65
2024/03/21 03:05:35;;;;;;;;;;;;;;;;;;5049811;28;19992;-65
2024/03/21 03:08:00;;;;;;;;;;;;;;;;;;5045561;28;20137;-65
2024/03/21 03:10:25;;;;;;;;;;;;;;;;;;5043803;28;19957;-65
2024/03/21 03:12:51;;;;;;;;;;;;;;;;;;5042022;28;19921;-66
2024/03/21 03:15:16;;;;;;;;;;;;;;;;;;5042702;28;19921;-65
2024/03/21 03:17:41;;;;;;;;;;;;;;;;;;5045647;28;19931;-65
2024/03/21 03:20:06;;;;;;;;;;;;;;;;;;5046779;28;19921;-66
2024/03/21 03:22:31;;;;;;;;;;;;;;;;;;5043097;28;20278;-65
2024/03/21 03:24:56;;;;;;;;;;;;;;;;;;5043374;28;19971;-65
2024/03/21 03:27:22;;;;;;;;;;;;;;;;;;5046889;28;20297;-65
2024/03/21 03:29:47;;;;;;;;;;;;;;;;;;5046254;28;20279;-65
2024/03/21 03:32:12;;;;;;;;;;;;;;;;;;5037324;28;20076;-65
2024/03/21 03:37:21;;;;;;;;;;;;;;;;;;5043797;28;19927;-66
2024/03/21 03:39:46;;;;;;;;;;;;;;;;;;5043094;28;19924;-67
2024/03/21 03:42:12;;;;;;;;;;;;;;;;;;5042050;28;19978;-66
2024/03/21 03:44:37;;;;;;;;;;;;;;;;;;5046671;28;20336;-66
2024/03/21 03:47:02;;;;;;;;;;;;;;;;;;5046713;28;19972;-66
2024/03/21 03:49:27;;;;;;;;;;;;;;;;;;5044875;28;20019;-66
2024/03/21 03:51:52;;;;;;;;;;;;;;;;;;5045373;28;20427;-65
2024/03/21 03:54:17;;;;;;;;;;;;;;;;;;5044121;28;19916;-66
2024/03/21 03:56:42;;;;;;;;;;;;;;;;;;5039492;28;19929;-66
2024/03/21 03:59:07;;;;;;;;;;;;;;;;;;5044314;28;19943;-66
2024/03/21 04:01:33;;;;;;;;;;;;;;;;;;5040159;28;19921;-66
2024/03/21 04:03:58;;;;;;;;;;;;;;;;;;5043218;28;19981;-66
2024/03/21 04:06:23;;;;;;;;;;;;;;;;;;5038919;28;20203;-66
2024/03/21 04:08:48;;;;;;;;;;;;;;;;;;5039454;28;19925;-66
2024/03/21 04:11:13;;;;;;;;;;;;;;;;;;5036252;28;20301;-66
2024/03/21 04:13:38;;;;;;;;;;;;;;;;;;5058036;28;20381;-66
2024/03/21 04:16:03;;;;;;;;;;;;;;;;;;5041571;28;20264;-66
2024/03/21 04:18:28;;;;;;;;;;;;;;;;;;5045843;28;19921;-66
2024/03/21 04:20:53;;;;;;;;;;;;;;;;;;5057494;28;20378;-66
2024/03/21 04:23:18;;;;;;;;;;;;;;;;;;5044940;28;19921;-66
2024/03/21 04:25:43;;;;;;;;;;;;;;;;;;5046611;28;19917;-66
2024/03/21 04:28:09;;;;;;;;;;;;;;;;;;5036746;28;19952;-66
2024/03/21 04:30:34;;;;;;;;;;;;;;;;;;5046648;28;20373;-66
2024/03/21 04:32:59;;;;;;;;;;;;;;;;;;5054646;28;20177;-66
2024/03/21 04:35:24;;;;;;;;;;;;;;;;;;5032801;28;20421;-66
2024/03/21 04:37:49;;;;;;;;;;;;;;;;;;5034692;28;19964;-66
2024/03/21 04:40:14;;;;;;;;;;;;;;;;;;5046763;28;19917;-66
2024/03/21 04:42:39;;;;;;;;;;;;;;;;;;5047092;28;19924;-66
2024/03/21 04:45:05;;;;;;;;;;;;;;;;;;5040229;28;19940;-66
2024/03/21 04:47:30;;;;;;;;;;;;;;;;;;5037876;28;19920;-66
2024/03/21 04:49:56;;;;;;;;;;;;;;;;;;5043840;28;19929;-66
2024/03/21 04:52:21;;;;;;;;;;;;;;;;;;5044301;28;19924;-66
2024/03/21 04:54:46;;;;;;;;;;;;;;;;;;5041809;28;19963;-66
2024/03/21 04:57:11;;;;;;;;;;;;;;;;;;5040572;28;19924;-66
2024/03/21 04:59:36;;;;;;;;;;;;;;;;;;5046235;28;19964;-66
2024/03/21 05:02:01;;;;;;;;;;;;;;;;;;5038380;28;20300;-66
2024/03/21 05:04:26;;;;;;;;;;;;;;;;;;5042096;28;20341;-66
2024/03/21 05:06:52;;;;;;;;;;;;;;;;;;5043354;28;20436;-66
2024/03/21 05:09:17;;;;;;;;;;;;;;;;;;5041092;28;19956;-66
2024/03/21 05:11:42;;;;;;;;;;;;;;;;;;5039760;28;20274;-66
2024/03/21 05:14:07;;;;;;;;;;;;;;;;;;5061049;28;20396;-66
2024/03/21 05:16:32;;;;;;;;;;;;;;;;;;5037770;28;19929;-66
2024/03/21 05:18:57;;;;;;;;;;;;;;;;;;5037366;28;20006;-66
2024/03/21 05:21:22;;;;;;;;;;;;;;;;;;5041675;28;20400;-66
2024/03/21 05:23:47;;;;;;;;;;;;;;;;;;5034458;28;19917;-66
2024/03/21 05:26:12;;;;;;;;;;;;;;;;;;5043173;28;20042;-66
2024/03/21 05:28:37;;;;;;;;;;;;;;;;;;5045213;28;20438;-66
2024/03/21 05:31:06;;;;;;;;;;;;;;;;;;5045543;28;19921;-66
2024/03/21 05:33:31;;;;;;;;;;;;;;;;;;5040410;28;19924;-66
2024/03/21 05:35:56;;;;;;;;;;;;;;;;;;5040687;28;19947;-66
2024/03/21 05:38:21;;;;;;;;;;;;;;;;;;5057653;28;19960;-66
2024/03/21 05:40:47;;;;;;;;;;;;;;;;;;5045851;28;20011;-66
2024/03/21 05:43:12;;;;;;;;;;;;;;;;;;5038491;28;19932;-66
2024/03/21 05:45:37;;;;;;;;;;;;;;;;;;5045955;28;19963;-66
2024/03/21 05:48:03;;;;;;;;;;;;;;;;;;5045466;28;20003;-66
2024/03/21 05:50:28;;;;;;;;;;;;;;;;;;5035196;28;19921;-66
2024/03/21 05:52:53;;;;;;;;;;;;;;;;;;5054504;28;20385;-66
2024/03/21 05:55:18;;;;;;;;;;;;;;;;;;5041295;28;19921;-65
2024/03/21 05:57:43;;;;;;;;;;;;;;;;;;5035751;28;19929;-65
2024/03/21 06:00:12;;;;;;;;;;;;;;;;;;5058011;28;19924;-66
2024/03/21 06:02:37;;;;;;;;;;;;;;;;;;5040335;28;19927;-66
2024/03/21 06:05:02;;;;;;;;;;;;;;;;;;5059379;28;20019;-66
2024/03/21 06:07:27;;;;;;;;;;;;;;;;;;5040539;28;19925;-66
2024/03/21 06:09:52;;;;;;;;;;;;;;;;;;5045792;28;19927;-66
2024/03/21 06:12:17;;;;;;;;;;;;;;;;;;5039656;28;20466;-66
2024/03/21 06:14:43;;;;;;;;;;;;;;;;;;5043092;28;19995;-66
2024/03/21 06:17:08;;;;;;;;;;;;;;;;;;5040436;28;20403;-66
2024/03/21 06:19:33;;;;;;;;;;;;;;;;;;5041443;28;21163;-66
2024/03/21 06:21:58;;;;;;;;;;;;;;;;;;5033185;28;19920;-66
2024/03/21 06:24:23;;;;;;;;;;;;;;;;;;5047031;28;19950;-66
2024/03/21 06:26:51;;;;;;;;;;;;;;;;;;5049409;28;19921;-66
2024/03/21 06:29:16;;;;;;;;;;;;;;;;;;5035379;28;19948;-66
2024/03/21 06:31:41;;;;;;;;;;;;;;;;;;5049011;28;20090;-66
2024/03/21 06:34:07;;;;;;;;;;;;;;;;;;5048514;28;19916;-67
2024/03/21 06:36:32;;;;;;;;;;;;;;;;;;5047630;28;19970;-67
2024/03/21 06:38:57;;;;;;;;;;;;;;;;;;5048904;28;20006;-67
2024/03/21 06:41:22;;;;;;;;;;;;;;;;;;5046627;28;20309;-67
2024/03/21 06:43:47;;;;;;;;;;;;;;;;;;5048163;28;19924;-66
2024/03/21 06:46:12;;;;;;;;;;;;;;;;;;5044527;28;20446;-67
2024/03/21 06:48:38;;;;;;;;;;;;;;;;;;5046892;28;20362;-67
2024/03/21 06:51:03;;;;;;;;;;;;;;;;;;5046801;28;19924;-66
2024/03/21 06:53:28;;;;;;;;;;;;;;;;;;5046829;28;19932;-67
2024/03/21 06:55:53;;;;;;;;;;;;;;;;;;5051637;28;19952;-67
2024/03/21 06:58:18;;;;;;;;;;;;;;;;;;5047768;28;20007;-67
2024/03/21 07:00:44;;;;;;;;;;;;;;;;;;5046792;28;19978;-67
2024/03/21 07:03:09;;;;;;;;;;;;;;;;;;5047872;28;19929;-67
2024/03/21 07:05:34;;;;;;;;;;;;;;;;;;5048059;28;19917;-67
2024/03/21 07:08:01;;;;;;;;;;;;;;;;;;5046023;28;20378;-68
2024/03/21 07:10:26;;;;;;;;;;;;;;;;;;5047630;28;19924;-67
2024/03/21 07:12:51;;;;;;;;;;;;;;;;;;5044356;28;19951;-67
2024/03/21 07:15:18;;;;;;;;;;;;;;;;;;5045153;28;20473;-67
2024/03/21 07:17:43;;;;;;;;;;;;;;;;;;5041082;28;19928;-67
2024/03/21 07:20:10;;;;;;;;;;;;;;;;;;5043297;28;19921;-68
2024/03/21 07:22:35;;;;;;;;;;;;;;;;;;5044066;28;20007;-67
2024/03/21 07:25:01;;;;;;;;;;;;;;;;;;5037976;28;20012;-68
2024/03/21 07:27:26;;;;;;;;;;;;;;;;;;5040473;28;20447;-67
2024/03/21 07:29:51;;;;;;;;;;;;;;;;;;5046222;28;20294;-67
2024/03/21 07:32:16;;;;;;;;;;;;;;;;;;5039793;28;19925;-68
2024/03/21 07:34:41;;;;;;;;;;;;;;;;;;5046065;28;19946;-68
2024/03/21 07:37:06;;;;;;;;;;;;;;;;;;5044745;28;20073;-68
2024/03/21 07:39:31;;;;;;;;;;;;;;;;;;5046921;28;19921;-67
2024/03/21 07:41:58;;;;;;;;;;;;;;;;;;5047615;28;19943;-68
2024/03/21 07:44:23;;;;;;;;;;;;;;;;;;5045322;28;19927;-68
2024/03/21 07:46:49;;;;;;;;;;;;;;;;;;5040660;28;19932;-68
2024/03/21 07:49:14;;;;;;;;;;;;;;;;;;5054367;28;20580;-66
2024/03/21 07:51:39;;;;;;;;;;;;;;;;;;5046745;28;19932;-67
2024/03/21 07:54:04;;;;;;;;;;;;;;;;;;5047615;28;19917;-67
2024/03/21 07:56:29;;;;;;;;;;;;;;;;;;5045742;28;19928;-67
2024/03/21 07:58:54;;;;;;;;;;;;;;;;;;5046970;28;19916;-67
2024/03/21 08:01:19;;;;;;;;;;;;;;;;;;5051204;28;19917;-67
2024/03/21 08:03:44;;;;;;;;;;;;;;;;;;5041472;28;19921;-67
2024/03/21 08:06:09;;;;;;;;;;;;;;;;;;5042102;28;19921;-67
2024/03/21 08:08:34;;;;;;;;;;;;;;;;;;5046403;28;19920;-67
2024/03/21 08:11:00;;;;;;;;;;;;;;;;;;5044980;28;19917;-67
2024/03/21 08:13:25;;;;;;;;;;;;;;;;;;5046568;28;19966;-67
2024/03/21 08:15:51;;;;;;;;;;;;;;;;;;5041774;28;19990;-67
2024/03/21 08:18:16;;;;;;;;;;;;;;;;;;5038092;28;19916;-67
2024/03/21 08:20:41;;;;;;;;;;;;;;;;;;5038019;28;20515;-67
2024/03/21 08:23:06;;;;;;;;;;;;;;;;;;5046850;28;19966;-67
2024/03/21 08:25:31;;;;;;;;;;;;;;;;;;5046586;28;19917;-67
2024/03/21 08:27:56;;;;;;;;;;;;;;;;;;5039578;28;19964;-67
2024/03/21 08:30:22;;;;;;;;;;;;;;;;;;5046081;28;20317;-67
2024/03/21 08:32:48;;;;;;;;;;;;;;;;;;5046414;28;19921;-67
2024/03/21 08:35:13;;;;;;;;;;;;;;;;;;5045056;28;19919;-67
2024/03/21 08:37:38;;;;;;;;;;;;;;;;;;5039574;28;19925;-67
2024/03/21 08:40:04;;;;;;;;;;;;;;;;;;5040305;28;20348;-68
2024/03/21 08:42:29;;;;;;;;;;;;;;;;;;5044124;28;19920;-68
2024/03/21 08:44:55;;;;;;;;;;;;;;;;;;5037953;28;19925;-68
2024/03/21 08:47:20;;;;;;;;;;;;;;;;;;5046606;28;19993;-68
2024/03/21 08:49:45;;;;;;;;;;;;;;;;;;5046373;28;19939;-65
2024/03/21 08:52:11;;;;;;;;;;;;;;;;;;5046033;28;19924;-66
2024/03/21 08:54:36;;;;;;;;;;;;;;;;;;5046068;28;19924;-66
2024/03/21 08:57:01;;;;;;;;;;;;;;;;;;5040250;28;19925;-65
2024/03/21 08:59:26;;;;;;;;;;;;;;;;;;5046118;28;19986;-65
2024/03/21 09:01:51;;;;;;;;;;;;;;;;;;5045644;28;19932;-65
2024/03/21 09:04:20;;;;;;;;;;;;;;;;;;5045814;28;19920;-65
2024/03/21 09:06:45;;;;;;;;;;;;;;;;;;5046286;28;19948;-65
2024/03/21 09:09:10;;;;;;;;;;;;;;;;;;5046236;28;19923;-65
2024/03/21 09:11:35;;;;;;;;;;;;;;;;;;5045705;28;20515;-65
2024/03/21 09:14:01;;;;;;;;;;;;;;;22.19;nan;100895.97;5044136;28;19924;-65
2024/03/21 09:16:27;;;;;;;;;;;;;;;;;;5039960;28;19920;-65
2024/03/21 09:18:52;;;;;;;;;;;;;;;;;;5043388;28;19927;-65
2024/03/21 09:21:17;;;;;;;;;;;;;;;22.84;nan;100900.97;5038824;28;19924;-65
2024/03/21 09:23:42;;;;;;;;;;;;;;;;;;5043589;28;19921;-65
2024/03/21 09:26:07;;;;;;;;;;;;;;;23.09;nan;100900.91;5042847;28;20008;-66
2024/03/21 09:28:32;;;;;;;;;;;;;;;23.22;nan;100907.25;5040897;28;19921;-65
2024/03/21 09:30:57;;;;;;;;;;;;;;;;;;5041860;28;19925;-65
2024/03/21 09:33:22;;;;;;;;;;;;;;;22.90;nan;100899.25;5039909;28;19931;-65
2024/03/21 09:35:57;;;;;;;;;;;;;;;22.84;nan;100900.16;5042985;28;20304;-65
2024/03/21 09:38:23;;;;;;;;;;;;;;;;;;5037950;28;19920;-65
2024/03/21 09:40:48;;;;;;;;;;;;;;;23.32;nan;100929.91;5037766;28;19917;-65
2024/03/21 09:43:13;;;;;;;;;;;;;;;;;;5029457;28;19925;-65
2024/03/21 09:45:39;;;;;;;;;;;;;;;22.98;nan;100911.63;5042772;28;20292;-65
2024/03/21 09:48:04;;;;;;;;;;;;;;;23.35;nan;100925.94;5028747;28;19929;-65
2024/03/21 09:50:29;;;;;;;;;;;;;;;23.70;nan;100936.09;5037147;28;20570;-65
2024/03/21 09:52:55;;;;;;;;;;;;;;;23.72;nan;100939.38;5040814;28;20296;-65
2024/03/21 09:55:20;;;;;;;;;;;;;;;23.91;nan;100927.50;5048186;28;19943;-65
2024/03/21 09:57:45;;;;;;;;;;;;;;;23.90;nan;100939.34;5038005;28;19971;-65
2024/03/21 10:00:15;;;;;;;;;;;;;;;23.89;nan;100939.59;5041903;28;21372;-65
2024/03/21 10:02:40;;;;;;;;;;;;;;;23.73;nan;100924.81;5034759;28;19932;-65
2024/03/21 10:05:08;;;;;;;;;;;;;;;23.54;nan;100932.13;5043731;28;19925;-65
2024/03/21 10:07:36;;;;;;;;;;;;;;;24.08;nan;100926.84;5040077;28;20416;-65
2024/03/21 10:10:02;;;;;;;;;;;;;;;24.51;nan;100944.69;5046377;28;19919;-65
2024/03/21 10:12:27;;;;;;;;;;;;;;;;;;5032090;28;19972;-65
2024/03/21 10:14:56;;;;;;;;;;;;;;;23.88;nan;100944.19;5038270;28;19948;-65
2024/03/21 10:17:22;;;;;;;;;;;;;;;23.73;nan;100936.47;5038665;28;19927;-65
2024/03/21 10:19:47;;;;;;;;;;;;;;;23.67;nan;100925.75;5029706;28;19917;-65
2024/03/21 10:22:19;;;;;;;;;;;;;;;23.53;nan;100946.69;5027903;28;19917;-66
2024/03/21 10:24:44;;;;;;;;;;;;;;;;;;5038999;28;19917;-65
2024/03/21 10:27:12;;;;;;;;;;;;;;;23.51;nan;100946.91;5040101;28;20032;-65
2024/03/21 10:29:37;;;;;;;;;;;;;;;23.56;nan;100945.41;5041239;28;19925;-65
2024/03/21 10:32:03;;;;;;;;;;;;;;;23.60;nan;100919.63;5042004;28;20279;-66
2024/03/21 10:34:29;;;;;;;;;;;;;;;22.96;nan;100927.22;5048452;28;20023;-65
2024/03/21 10:36:54;;;;;;;;;;;;;;;21.91;nan;100912.53;5033386;28;20128;-64
2024/03/21 10:39:19;;;;;;;;;;;;;;;;;;5034374;28;20378;-65
2024/03/21 10:41:45;;;;;;;;;;;;;;;22.01;nan;100922.81;5037457;28;19921;-67
2024/03/21 10:44:14;;;;;;;;;;;;;;;22.33;nan;100920.13;5035407;28;19974;-67
2024/03/21 10:46:39;;;;;;;;;;;;;;;21.71;nan;100911.81;5039033;28;19957;-65
2024/03/21 10:49:05;;;;;;;;;;;;;;;21.89;nan;100919.19;5040171;28;20441;-67
2024/03/21 10:51:30;;;;;;;;;;;;;;;;;;5035892;28;19921;-65
2024/03/21 10:53:55;;;;;;;;;;;;;;;;;;5041482;28;19921;-64
2024/03/21 10:56:20;;;;;;;;;;;;;;;;;;5035688;28;20002;-63
2024/03/21 10:58:45;;;;;;;;;;;;;;;;;;5037195;28;20298;-64
2024/03/21 11:01:10;;;;;;;;;;;;;;;;;;5043038;28;19920;-63
2024/03/21 11:03:35;;;;;;;;;;;;;;;;;;5047221;28;20002;-64
2024/03/21 11:06:00;;;;;;;;;;;;;;;;;;5035731;28;20288;-64
2024/03/21 11:08:26;;;;;;;;;;;;;;;;;;5045268;28;19981;-64
2024/03/21 11:10:51;;;;;;;;;;;;;;;;;;5030854;28;19966;-63
2024/03/21 11:13:16;;;;;;;;;;;;;;;;;;5039358;28;19920;-62
2024/03/21 11:15:41;;;;;;;;;;;;;;;;;;5039080;28;20340;-66
2024/03/21 11:18:06;;;;;;;;;;;;;;;;;;5040981;28;20008;-67
2024/03/21 11:20:32;;;;;;;;;;;;;;;;;;5028949;28;19940;-64
2024/03/21 11:22:57;;;;;;;;;;;;;;;;;;5029248;28;19928;-64
2024/03/21 11:25:22;;;;;;;;;;;;;;;;;;5047213;28;19927;-64
2024/03/21 11:27:48;;;;;;;;;;;;;;;;;;5043257;28;20593;-64
2024/03/21 11:30:13;;;;;;;;;;;;;;;;;;5040012;28;19917;-64
2024/03/21 11:32:38;;;;;;;;;;;;;;;;;;5060964;28;19932;-65
2024/03/21 11:35:03;;;;;;;;;;;;;;;;;;5037525;28;19928;-64
2024/03/21 11:37:29;;;;;;;;;;;;;;;;;;5044448;28;19948;-64
2024/03/21 11:39:54;;;;;;;;;;;;;;;;;;5046491;28;20300;-64
2024/03/21 11:42:19;;;;;;;;;;;;;;;;;;5046422;28;19982;-64
2024/03/21 11:44:44;;;;;;;;;;;;;;;;;;5038092;28;19953;-64
2024/03/21 11:47:09;;;;;;;;;;;;;;;;;;5033310;28;19921;-64
2024/03/21 11:49:34;;;;;;;;;;;;;;;;;;5046036;28;19952;-64
2024/03/21 11:51:59;;;;;;;;;;;;;;;;;;5038688;28;19970;-64
2024/03/21 11:54:24;;;;;;;;;;;;;;;;;;5034591;28;20405;-64
2024/03/21 11:56:50;;;;;;;;;;;;;;;;;;5058780;28;20304;-64
2024/03/21 11:59:15;;;;;;;;;;;;;;;;;;5035924;28;20346;-64
2024/03/21 12:01:40;;;;;;;;;;;;;;;;;;5035542;28;20012;-65
2024/03/21 12:04:05;;;;;;;;;;;;;;;;;;5041527;28;20580;-64
2024/03/21 12:06:30;;;;;;;;;;;;;;;;;;5035120;28;19976;-65
2024/03/21 12:08:55;;;;;;;;;;;;;;;;;;5028508;28;20008;-64
2024/03/21 12:11:20;;;;;;;;;;;;;;;;;;5034823;28;19943;-64
2024/03/21 12:13:45;;;;;;;;;;;;;;;;;;5035826;28;19967;-64
2024/03/21 12:16:11;;;;;;;;;;;;;;;;;;5044987;28;19922;-64
2024/03/21 12:18:36;;;;;;;;;;;;;;;;;;5032140;28;19917;-64
2024/03/21 12:21:01;;;;;;;;;;;;;;;;;;5034543;28;19929;-64
2024/03/21 12:23:26;;;;;;;;;;;;;;;;;;5031113;28;19921;-64
2024/03/21 12:25:51;;;;;;;;;;;;;;;;;;5036201;28;19924;-64
2024/03/21 12:28:16;;;;;;;;;;;;;;;;;;5055304;28;20407;-64
2024/03/21 12:30:41;;;;;;;;;;;;;;;;;;5039228;28;19917;-64
2024/03/21 12:33:07;;;;;;;;;;;;;;;;;;5034971;28;19925;-65
2024/03/21 12:35:32;;;;;;;;;;;;;;;;;;5036369;28;20372;-65
2024/03/21 12:37:57;;;;;;;;;;;;;;;;;;5035555;28;20322;-65
2024/03/21 12:40:22;;;;;;;;;;;;;;;;;;5039660;28;19924;-65
2024/03/21 12:42:47;;;;;;;;;;;;;;;;;;5046831;28;19917;-66
2024/03/21 12:45:14;;;;;;;;;;;;;;;;;;5034107;28;19928;-67
2024/03/21 12:47:39;;;;;;;;;;;;;;;;;;5035530;28;19924;-67
2024/03/21 12:50:04;;;;;;;;;;;;;;;;;;5034988;28;19977;-67
2024/03/21 12:52:30;;;;;;;;;;;;;;;;;;5042261;28;20004;-67
2024/03/21 12:54:55;;;;;;;;;;;;;;;;;;5041212;28;20396;-67
2024/03/21 12:57:20;;;;;;;;;;;;;;;;;;5039503;28;19917;-67
2024/03/21 12:59:46;;;;;;;;;;;;;;;;;;5042717;28;20308;-67
2024/03/21 13:02:12;;;;;;;;;;;;;;;;;;5044202;28;19948;-67
2024/03/21 13:04:37;;;;;;;;;;;;;;;;;;5037565;28;20393;-67
2024/03/21 13:07:03;;;;;;;;;;;;;;;;;;5040865;28;20395;-67
2024/03/21 13:09:28;;;;;;;;;;;;;;;;;;5045718;28;19928;-67
2024/03/21 13:11:53;;;;;;;;;;;;;;;;;;5045948;28;20335;-67
2024/03/21 13:14:18;;;;;;;;;;;;;;;;;;5034295;28;20007;-68
2024/03/21 13:16:45;;;;;;;;;;;;;;;;;;5040513;28;19917;-67
2024/03/21 13:19:10;;;;;;;;;;;;;;;;;;5038660;28;20576;-67
2024/03/21 13:21:35;;;;;;;;;;;;;;;;;;5045787;28;19920;-67
2024/03/21 13:24:00;;;;;;;;;;;;;;;;;;5041438;28;19980;-67
2024/03/21 13:26:25;;;;;;;;;;;;;;;;;;5041558;28;20090;-68
2024/03/21 13:28:51;;;;;;;;;;;;;;;;;;5041879;28;19931;-67
2024/03/21 13:31:16;;;;;;;;;;;;;;;;;;5033572;28;20408;-67
2024/03/21 13:33:41;;;;;;;;;;;;;;;;;;5047452;28;19920;-67
2024/03/21 13:36:08;;;;;;;;;;;;;;;;;;5057061;28;19928;-69
2024/03/21 13:38:33;;;;;;;;;;;;;;;;;;5042560;28;19987;-67
2024/03/21 13:40:58;;;;;;;;;;;;;;;;;;5040966;28;19917;-67
2024/03/21 13:43:23;;;;;;;;;;;;;;;;;;5034300;28;19925;-67
2024/03/21 13:45:48;;;;;;;;;;;;;;;;;;5038779;28;19916;-67
2024/03/21 13:48:13;;;;;;;;;;;;;;;;;;5045975;28;20012;-67
2024/03/21 13:50:38;;;;;;;;;;;;;;;;;;5033751;28;19928;-67
2024/03/21 13:53:03;;;;;;;;;;;;;;;;;;5034910;28;19933;-67
2024/03/21 13:55:29;;;;;;;;;;;;;;;;;;5052310;28;19998;-67
2024/03/21 13:57:54;;;;;;;;;;;;;;;;;;5054742;28;20439;-67
2024/03/21 14:00:24;;;;;;;;;;;;;;;;;;5047002;28;20850;-68
2024/03/21 14:02:50;;;;;;;;;;;;;;;;;;5042147;28;19963;-67
2024/03/21 14:05:16;;;;;;;;;;;;;;;;;;5042352;28;19975;-67
2024/03/21 14:07:44;;;;;;;;;;;;;;;;;;5038122;28;19985;-67
2024/03/21 14:10:09;;;;;;;;;;;;;;;;;;5035604;28;20023;-68
2024/03/21 14:12:34;;;;;;;;;;;;;;;;;;5038966;28;20044;-68
2024/03/21 14:15:00;;;;;;;;;;;;;;;;;;5045896;28;19917;-67
2024/03/21 14:17:28;;;;;;;;;;;;;;;;;;5037936;28;20495;-67
2024/03/21 14:19:54;;;;;;;;;;;;;;;;;;5039242;28;20326;-67
2024/03/21 14:22:19;;;;;;;;;;;;;;;;;;5047931;28;19927;-68
2024/03/21 14:24:45;;;;;;;;;;;;;;;;;;5048081;28;19921;-68
2024/03/21 14:27:10;;;;;;;;;;;;;;;;;;5034054;28;20310;-68
2024/03/21 14:29:36;;;;;;;;;;;;;;;;;;5063501;28;19925;-67
2024/03/21 14:32:02;;;;;;;;;;;;;;;;;;5046580;28;20363;-68
2024/03/21 14:34:27;;;;;;;;;;;;;;;;;;5041827;28;20011;-67
2024/03/21 14:36:52;;;;;;;;;;;;;;;;;;5039488;28;19920;-67
2024/03/21 14:39:18;;;;;;;;;;;;;;;;;;5031431;28;19921;-67
2024/03/21 14:41:43;;;;;;;;;;;;;;;;;;5036081;28;20023;-67
2024/03/21 14:44:08;;;;;;;;;;;;;;;;;;5034559;28;19921;-68
2024/03/21 14:46:34;;;;;;;;;;;;;;;;;;5035258;28;19932;-67
2024/03/21 14:49:00;;;;;;;;;;;;;;;;;;5040225;28;19972;-67
2024/03/21 14:51:25;;;;;;;;;;;;;;;;;;5039915;28;19960;-67
2024/03/21 14:53:51;;;;;;;;;;;;;;;;;;5040506;28;20448;-68
2024/03/21 14:56:16;;;;;;;;;;;;;;;;;;5045236;28;19921;-68
2024/03/21 14:58:44;;;;;;;;;;;;;;;;;;5041582;28;19917;-67
2024/03/21 15:01:09;;;;;;;;;;;;;;;;;;5036944;28;19978;-67
2024/03/21 15:03:35;;;;;;;;;;;;;;;;;;5033781;28;20187;-68
2024/03/21 15:06:00;;;;;;;;;;;;;;;;;;5030870;28;19925;-67
2024/03/21 15:08:25;;;;;;;;;;;;;;;;;;5040375;28;20019;-68
2024/03/21 15:10:50;;;;;;;;;;;;;;;;;;5048482;28;19917;-67
2024/03/21 15:13:15;;;;;;;;;;;;;;;;;;5029966;28;19920;-67
2024/03/21 15:15:40;;;;;;;;;;;;;;;;;;5034147;28;19943;-67
2024/03/21 15:18:05;;;;;;;;;;;;;;;;;;5027293;28;19921;-68
2024/03/21 15:20:30;;;;;;;;;;;;;;;;;;5035810;28;20385;-67
2024/03/21 15:22:55;;;;;;;;;;;;;;;;;;5036812;28;20465;-67
2024/03/21 15:25:21;;;;;;;;;;;;;;;;;;5037741;28;19916;-67
2024/03/21 15:27:46;;;;;;;;;;;;;;;;;;5030485;28;19932;-67
2024/03/21 15:30:12;;;;;;;;;;;;;;;;;;5036036;28;19924;-68
2024/03/21 15:32:37;;;;;;;;;;;;;;;;;;5040663;28;19917;-67
2024/03/21 15:35:03;;;;;;;;;;;;;;;;;;5052890;28;19928;-67
2024/03/21 15:37:28;;;;;;;;;;;;;;;;;;5036584;28;19979;-67
2024/03/21 15:39:53;;;;;;;;;;;;;;;;;;5034719;28;19921;-67
2024/03/21 15:42:20;;;;;;;;;;;;;;;;;;5043515;28;19971;-67
2024/03/21 15:44:47;;;;;;;;;;;;;;;;;;5028112;28;19917;-67
2024/03/21 15:47:12;;;;;;;;;;;;;;;;;;5030991;28;19925;-67
2024/03/21 15:49:37;;;;;;;;;;;;;;;;;;5035080;28;19917;-67
2024/03/21 15:52:02;;;;;;;;;;;;;;;;;;5030337;28;20457;-68
2024/03/21 15:54:28;;;;;;;;;;;;;;;;;;5046979;28;19923;-67
2024/03/21 15:56:53;;;;;;;;;;;;;;;;;;5047533;28;20110;-67
2024/03/21 15:59:18;;;;;;;;;;;;;;;;;;5038948;28;20007;-67
2024/03/21 16:01:43;;;;;;;;;;;;;;;;;;5034116;28;20348;-67
2024/03/21 16:04:09;;;;;;;;;;;;;;;;;;5035541;28;19917;-67
2024/03/21 16:06:34;;;;;;;;;;;;;;;;;;5039783;28;19952;-67
2024/03/21 16:08:59;;;;;;;;;;;;;;;;;;5039426;28;20316;-67
2024/03/21 16:11:24;;;;;;;;;;;;;;;;;;5044747;28;19973;-67
2024/03/21 16:13:49;;;;;;;;;;;;;;;;;;5027676;28;19975;-67
2024/03/21 16:16:14;;;;;;;;;;;;;;;;;;5038229;28;20324;-67